Terminal Aerodrome Forecast
Issued by NWS

Home | Current Version | Previous Version | Text Only | Print | Product List | Glossary On
Versions: 1 2 3 4 5 6 7 8 9 10 11 12 13 14 15 16 17 18 19
579
FTUS43 KPAH 252322
TAFCGI
TAF
KCGI 252322Z 2600/2624 29003KT P6SM VCSH SCT060 OVC100
     FM260300 VRB03KT P6SM -SHRA SCT035 OVC080
      TEMPO 2604/2608 6SM -SHRA BKN035
     FM260800 03005KT 6SM -SHRA BR OVC030
     FM261500 02008KT P6SM BKN040
     FM262000 36007KT P6SM SCT050=

USA.gov is the U.S. government's official web portal to all federal, state and local government web resources and services.